Time,TemperatureF,DewpointF,PressureIn,WindDirection,WindDirectionDegrees,WindSpeedMPH,WindSpeedGustMPH,Humidity,HourlyPrecipIn,Conditions,Clouds,dailyrainin,SoftwareType,DateUTC
2013-01-02 00:03:00,9.0,-0.7,29.85,SW,231,0.0,-999.0,64,0.00,,,0.00,Wunderground v.1.15,2013-01-02 05:03:00,
2013-01-02 00:04:00,9.0,-0.7,29.85,SW,233,0.0,-999.0,64,0.00,,,0.00,Wunderground v.1.15,2013-01-02 05:04:00,
2013-01-02 00:05:00,8.9,-0.8,29.85,WSW,243,0.0,-999.0,64,0.00,,,0.00,Wunderground v.1.15,2013-01-02 05:05:00,
2013-01-02 00:06:00,8.9,-0.5,29.85,WSW,243,0.0,-999.0,65,0.00,,,0.00,Wunderground v.1.15,2013-01-02 05:06:00,
2013-01-02 00:12:00,8.9,-0.5,29.85,WSW,250,0.0,-999.0,65,0.00,,,0.00,Wunderground v.1.15,2013-01-02 05:12:00,
2013-01-02 00:18:00,8.9,-0.5,29.85,WSW,239,0.0,-999.0,65,0.00,,,0.00,Wunderground v.1.15,2013-01-02 05:18:00,
2013-01-02 00:24:00,9.0,-0.7,29.85,WNW,294,0.0,-999.0,64,0.00,,,0.00,Wunderground v.1.15,2013-01-02 05:24:00,
2013-01-02 00:29:00,9.1,-0.6,29.85,NW,308,0.0,-999.0,64,0.00,,,0.00,Wunderground v.1.15,2013-01-02 05:29:00,
2013-01-02 00:35:00,9.1,-0.6,29.86,NNE,26,0.0,-999.0,64,0.00,,,0.00,Wunderground v.1.15,2013-01-02 05:35:00,
2013-01-02 00:40:00,9.1,-0.6,29.85,NE,45,0.0,-999.0,64,0.00,,,0.00,Wunderground v.1.15,2013-01-02 05:40:00,
2013-01-02 00:45:00,9.1,-0.6,29.85,WNW,300,0.0,-999.0,64,0.00,,,0.00,Wunderground v.1.15,2013-01-02 05:45:00,
2013-01-02 00:51:00,8.6,-0.8,29.85,WNW,299,0.0,-999.0,65,0.00,,,0.00,Wunderground v.1.15,2013-01-02 05:51:00,
2013-01-02 00:56:00,8.3,-0.7,29.85,NNW,330,0.0,-999.0,66,0.00,,,0.00,Wunderground v.1.15,2013-01-02 05:56:00,
2013-01-02 01:03:00,8.0,-1.0,29.85,NNW,330,0.0,-999.0,66,0.00,,,0.00,Wunderground v.1.15,2013-01-02 06:03:00,
2013-01-02 01:09:00,7.5,-1.2,29.85,NNW,330,0.0,-999.0,67,0.00,,,0.00,Wunderground v.1.15,2013-01-02 06:09:00,
2013-01-02 01:15:00,7.0,-1.0,29.85,West,278,0.0,-999.0,69,0.00,,,0.00,Wunderground v.1.15,2013-01-02 06:15:00,
2013-01-02 01:21:00,6.9,-1.1,29.85,WSW,242,0.0,-999.0,69,0.00,,,0.00,Wunderground v.1.15,2013-01-02 06:21:00,
2013-01-02 01:27:00,6.3,-1.4,29.86,WSW,242,0.0,-999.0,70,0.00,,,0.00,Wunderground v.1.15,2013-01-02 06:27:00,
2013-01-02 01:33:00,5.9,-1.5,29.86,WSW,242,0.0,-999.0,71,0.00,,,0.00,Wunderground v.1.15,2013-01-02 06:33:00,
2013-01-02 01:38:00,5.6,-1.5,29.87,WSW,242,0.0,-999.0,72,0.00,,,0.00,Wunderground v.1.15,2013-01-02 06:38:00,
2013-01-02 01:44:00,5.4,-1.4,29.86,WSW,241,0.0,-999.0,73,0.00,,,0.00,Wunderground v.1.15,2013-01-02 06:44:00,
2013-01-02 01:49:00,4.8,-1.7,29.86,WSW,242,0.0,-999.0,74,0.00,,,0.00,Wunderground v.1.15,2013-01-02 06:49:00,
2013-01-02 01:55:00,4.3,-1.9,29.86,WSW,242,0.0,-999.0,75,0.00,,,0.00,Wunderground v.1.15,2013-01-02 06:55:00,
2013-01-02 02:00:00,3.8,-2.1,29.86,SW,221,0.0,-999.0,76,0.00,,,0.00,Wunderground v.1.15,2013-01-02 07:00:00,
2013-01-02 02:06:00,3.6,-2.3,29.86,SW,222,0.0,-999.0,76,0.00,,,0.00,Wunderground v.1.15,2013-01-02 07:06:00,
2013-01-02 02:11:00,3.6,-2.0,29.86,SW,222,0.0,-999.0,77,0.00,,,0.00,Wunderground v.1.15,2013-01-02 07:11:00,
2013-01-02 02:16:00,3.3,-2.3,29.86,SW,222,0.0,-999.0,77,0.00,,,0.00,Wunderground v.1.15,2013-01-02 07:16:00,
2013-01-02 02:21:00,3.0,-2.3,29.86,SW,222,0.0,-999.0,78,0.00,,,0.00,Wunderground v.1.15,2013-01-02 07:21:00,
2013-01-02 02:26:00,2.6,-2.7,29.86,SW,221,0.0,-999.0,78,0.00,,,0.00,Wunderground v.1.15,2013-01-02 07:26:00,
2013-01-02 02:32:00,2.4,-2.6,29.86,SW,222,0.0,-999.0,79,0.00,,,0.00,Wunderground v.1.15,2013-01-02 07:32:00,
2013-01-02 02:38:00,2.0,-3.0,29.87,SW,222,0.0,-999.0,79,0.00,,,0.00,Wunderground v.1.15,2013-01-02 07:38:00,
2013-01-02 02:44:00,1.7,-3.0,29.86,SW,222,0.0,-999.0,80,0.00,,,0.00,Wunderground v.1.15,2013-01-02 07:44:00,
2013-01-02 02:49:00,1.4,-3.3,29.86,SW,222,0.0,-999.0,80,0.00,,,0.00,Wunderground v.1.15,2013-01-02 07:49:00,
2013-01-02 02:55:00,1.1,-3.4,29.86,SW,222,0.0,-999.0,81,0.00,,,0.00,Wunderground v.1.15,2013-01-02 07:55:00,
2013-01-02 03:03:00,0.7,-3.5,29.86,SW,222,0.0,-999.0,82,0.00,,,0.00,Wunderground v.1.15,2013-01-02 08:03:00,
2013-01-02 03:08:00,0.7,-3.5,29.85,SW,221,0.0,-999.0,82,0.00,,,0.00,Wunderground v.1.15,2013-01-02 08:08:00,
2013-01-02 03:14:00,0.5,-3.4,29.85,SW,221,0.0,-999.0,83,0.00,,,0.00,Wunderground v.1.15,2013-01-02 08:14:00,
2013-01-02 03:20:00,0.3,-3.4,29.85,SW,221,0.0,-999.0,84,0.00,,,0.00,Wunderground v.1.15,2013-01-02 08:20:00,
2013-01-02 03:25:00,0.0,-3.7,29.85,SW,222,0.0,-999.0,84,0.00,,,0.00,Wunderground v.1.15,2013-01-02 08:25:00,
2013-01-02 03:31:00,-0.4,-4.1,29.85,SW,222,0.0,-999.0,84,0.00,,,0.00,Wunderground v.1.15,2013-01-02 08:31:00,
2013-01-02 03:37:00,-0.6,-4.0,29.85,SW,222,0.0,-999.0,85,0.00,,,0.00,Wunderground v.1.15,2013-01-02 08:37:00,
2013-01-02 03:43:00,-0.8,-4.2,29.85,SW,223,0.0,-999.0,85,0.00,,,0.00,Wunderground v.1.15,2013-01-02 08:43:00,
2013-01-02 03:49:00,-0.5,-3.7,29.85,SW,223,0.0,-999.0,86,0.00,,,0.00,Wunderground v.1.15,2013-01-02 08:49:00,
2013-01-02 03:55:00,-0.3,-3.7,29.85,SW,223,0.0,-999.0,85,0.00,,,0.00,Wunderground v.1.15,2013-01-02 08:55:00,
2013-01-02 04:02:00,-0.4,-3.8,29.85,SW,223,0.0,-999.0,85,0.00,,,0.00,Wunderground v.1.15,2013-01-02 09:02:00,
2013-01-02 04:08:00,-0.5,-3.9,29.85,SW,223,0.0,-999.0,85,0.00,,,0.00,Wunderground v.1.15,2013-01-02 09:08:00,
2013-01-02 04:13:00,-0.3,-3.7,29.85,SW,223,0.0,-999.0,85,0.00,,,0.00,Wunderground v.1.15,2013-01-02 09:13:00,
2013-01-02 04:19:00,-0.2,-3.4,29.85,SW,224,0.0,-999.0,86,0.00,,,0.00,Wunderground v.1.15,2013-01-02 09:19:00,
2013-01-02 04:25:00,0.3,-2.9,29.85,SW,225,0.0,-999.0,86,0.00,,,0.00,Wunderground v.1.15,2013-01-02 09:25:00,
2013-01-02 04:31:00,1.2,-2.3,29.85,West,274,0.0,-999.0,85,0.00,,,0.00,Wunderground v.1.15,2013-01-02 09:31:00,
2013-01-02 04:36:00,1.4,-2.6,29.85,West,272,0.0,-999.0,83,0.00,,,0.00,Wunderground v.1.15,2013-01-02 09:36:00,
2013-01-02 04:42:00,1.4,-2.6,29.85,West,272,0.0,-999.0,83,0.00,,,0.00,Wunderground v.1.15,2013-01-02 09:42:00,
2013-01-02 04:48:00,1.6,-2.4,29.85,West,273,0.0,-999.0,83,0.00,,,0.00,Wunderground v.1.15,2013-01-02 09:48:00,
2013-01-02 04:53:00,1.3,-2.7,29.85,West,272,0.0,-999.0,83,0.00,,,0.00,Wunderground v.1.15,2013-01-02 09:53:00,
2013-01-02 04:59:00,1.1,-2.9,29.85,West,269,0.0,-999.0,83,0.00,,,0.00,Wunderground v.1.15,2013-01-02 09:59:00,
2013-01-02 05:04:00,1.5,-2.5,29.85,West,259,0.0,-999.0,83,0.00,,,0.00,Wunderground v.1.15,2013-01-02 10:04:00,
2013-01-02 05:09:00,2.0,-2.0,29.84,WSW,257,0.0,-999.0,83,0.00,,,0.00,Wunderground v.1.15,2013-01-02 10:09:00,
2013-01-02 05:14:00,2.5,-2.0,29.85,WSW,250,0.0,-999.0,81,0.00,,,0.00,Wunderground v.1.15,2013-01-02 10:14:00,
2013-01-02 05:20:00,2.5,-2.0,29.85,SW,236,0.0,-999.0,81,0.00,,,0.00,Wunderground v.1.15,2013-01-02 10:20:00,
2013-01-02 05:26:00,2.6,-2.2,29.85,WSW,240,1.0,-999.0,80,0.00,,,0.00,Wunderground v.1.15,2013-01-02 10:26:00,
2013-01-02 05:32:00,2.9,-1.9,29.85,WSW,243,1.0,-999.0,80,0.00,,,0.00,Wunderground v.1.15,2013-01-02 10:32:00,
2013-01-02 05:38:00,3.6,-1.2,29.86,WSW,240,1.0,-999.0,80,0.00,,,0.00,Wunderground v.1.15,2013-01-02 10:38:00,
2013-01-02 05:44:00,4.2,-1.1,29.86,SW,235,1.0,-999.0,78,0.00,,,0.00,Wunderground v.1.15,2013-01-02 10:44:00,
2013-01-02 05:49:00,4.5,-0.8,29.86,SW,226,1.0,-999.0,78,0.00,,,0.00,Wunderground v.1.15,2013-01-02 10:49:00,
2013-01-02 05:55:00,4.7,-0.9,29.86,WSW,250,1.0,-999.0,77,0.00,,,0.00,Wunderground v.1.15,2013-01-02 10:55:00,
2013-01-02 06:00:00,4.8,-0.8,29.86,SW,219,1.0,-999.0,77,0.00,,,0.00,Wunderground v.1.15,2013-01-02 11:00:00,
2013-01-02 06:06:00,4.7,-0.9,29.86,SW,219,1.0,-999.0,77,0.00,,,0.00,Wunderground v.1.15,2013-01-02 11:06:00,
2013-01-02 06:12:00,4.8,-0.8,29.86,SW,231,1.0,-999.0,77,0.00,,,0.00,Wunderground v.1.15,2013-01-02 11:12:00,
2013-01-02 06:17:00,4.8,-0.8,29.86,SW,218,0.0,-999.0,77,0.00,,,0.00,Wunderground v.1.15,2013-01-02 11:17:00,
2013-01-02 06:22:00,4.7,-0.9,29.86,SW,233,0.0,-999.0,77,0.00,,,0.00,Wunderground v.1.15,2013-01-02 11:22:00,
2013-01-02 06:28:00,4.5,-0.8,29.86,WSW,257,0.0,-999.0,78,0.00,,,0.00,Wunderground v.1.15,2013-01-02 11:28:00,
2013-01-02 06:33:00,4.6,-0.8,29.87,SSW,211,0.0,-999.0,78,0.00,,,0.00,Wunderground v.1.15,2013-01-02 11:33:00,
2013-01-02 06:39:00,4.5,-0.8,29.86,SW,224,0.0,-999.0,78,0.00,,,0.00,Wunderground v.1.15,2013-01-02 11:39:00,
2013-01-02 06:44:00,4.5,-0.6,29.86,WSW,238,0.0,-999.0,79,0.00,,,0.00,Wunderground v.1.15,2013-01-02 11:44:00,
2013-01-02 06:50:00,4.3,-0.8,29.86,WSW,238,0.0,-999.0,79,0.00,,,0.00,Wunderground v.1.15,2013-01-02 11:50:00,
2013-01-02 06:56:00,4.1,-0.7,29.86,WSW,238,0.0,-999.0,80,0.00,,,0.00,Wunderground v.1.15,2013-01-02 11:56:00,
2013-01-02 07:02:00,4.2,-0.6,29.86,SW,229,0.0,-999.0,80,0.00,,,0.00,Wunderground v.1.15,2013-01-02 12:02:00,
2013-01-02 07:07:00,4.2,-0.6,29.86,West,260,1.0,-999.0,80,0.00,,,0.00,Wunderground v.1.15,2013-01-02 12:07:00,
2013-01-02 07:12:00,4.2,-0.6,29.87,WSW,243,0.0,-999.0,80,0.00,,,0.00,Wunderground v.1.15,2013-01-02 12:12:00,
2013-01-02 07:18:00,4.3,-0.5,29.86,WSW,249,0.0,-999.0,80,0.00,,,0.00,Wunderground v.1.15,2013-01-02 12:18:00,
2013-01-02 07:24:00,4.2,-0.6,29.86,SW,236,0.0,-999.0,80,0.00,,,0.00,Wunderground v.1.15,2013-01-02 12:24:00,
2013-01-02 07:29:00,4.0,-0.8,29.86,SW,231,0.0,-999.0,80,0.00,,,0.00,Wunderground v.1.15,2013-01-02 12:29:00,
2013-01-02 07:34:00,4.0,-0.5,29.86,WSW,253,0.0,-999.0,81,0.00,,,0.00,Wunderground v.1.15,2013-01-02 12:34:00,
2013-01-02 07:40:00,4.5,0.0,29.86,SW,233,1.0,-999.0,81,0.00,,,0.00,Wunderground v.1.15,2013-01-02 12:40:00,
2013-01-02 07:45:00,4.8,0.2,29.86,SW,214,1.0,-999.0,81,0.00,,,0.00,Wunderground v.1.15,2013-01-02 12:45:00,
2013-01-02 07:51:00,5.1,0.3,29.86,SW,233,1.0,-999.0,80,0.00,,,0.00,Wunderground v.1.15,2013-01-02 12:51:00,
2013-01-02 07:57:00,5.5,0.7,29.87,SW,218,1.0,-999.0,80,0.00,,,0.00,Wunderground v.1.15,2013-01-02 12:57:00,
2013-01-02 08:02:00,6.1,1.0,29.86,SSW,212,1.0,-999.0,79,0.00,,,0.00,Wunderground v.1.15,2013-01-02 13:02:00,
2013-01-02 08:08:00,6.8,1.4,29.86,SW,231,0.0,-999.0,78,0.00,,,0.00,Wunderground v.1.15,2013-01-02 13:08:00,
2013-01-02 08:14:00,7.3,1.9,29.86,SSW,204,0.0,-999.0,78,0.00,,,0.00,Wunderground v.1.15,2013-01-02 13:14:00,
2013-01-02 08:19:00,7.7,2.0,29.86,SW,224,0.0,-999.0,77,0.00,,,0.00,Wunderground v.1.15,2013-01-02 13:19:00,
2013-01-02 08:25:00,8.2,2.2,29.86,SW,232,0.0,-999.0,76,0.00,,,0.00,Wunderground v.1.15,2013-01-02 13:25:00,
2013-01-02 08:31:00,9.0,2.7,29.86,SSW,205,1.0,-999.0,75,0.00,,,0.00,Wunderground v.1.15,2013-01-02 13:31:00,
2013-01-02 08:37:00,9.8,2.9,29.86,WSW,240,1.0,-999.0,73,0.00,,,0.00,Wunderground v.1.15,2013-01-02 13:37:00,
2013-01-02 08:42:00,10.1,2.9,29.87,SSW,194,1.0,-999.0,72,0.00,,,0.00,Wunderground v.1.15,2013-01-02 13:42:00,
2013-01-02 08:48:00,10.3,3.1,29.87,WSW,245,0.0,-999.0,72,0.00,,,0.00,Wunderground v.1.15,2013-01-02 13:48:00,
2013-01-02 08:53:00,10.5,3.3,29.87,West,278,0.0,-999.0,72,0.00,,,0.00,Wunderground v.1.15,2013-01-02 13:53:00,
2013-01-02 08:58:00,10.7,3.1,29.87,SSE,168,0.0,-999.0,71,0.00,,,0.00,Wunderground v.1.15,2013-01-02 13:58:00,
2013-01-02 09:03:00,11.1,3.5,29.88,SW,217,0.0,-999.0,71,0.00,,,0.00,Wunderground v.1.15,2013-01-02 14:03:00,
2013-01-02 09:09:00,11.9,4.0,29.88,SW,233,0.0,-999.0,70,0.00,,,0.00,Wunderground v.1.15,2013-01-02 14:09:00,
2013-01-02 09:15:00,12.8,4.2,29.88,NW,311,0.0,-999.0,68,0.00,,,0.00,Wunderground v.1.15,2013-01-02 14:15:00,
2013-01-02 09:21:00,13.1,4.2,29.88,SW,226,1.0,-999.0,67,0.00,,,0.00,Wunderground v.1.15,2013-01-02 14:21:00,
2013-01-02 09:26:00,13.5,4.6,29.88,SW,215,1.0,-999.0,67,0.00,,,0.00,Wunderground v.1.15,2013-01-02 14:26:00,
2013-01-02 09:32:00,14.1,4.5,29.88,WSW,240,1.0,-999.0,65,0.00,,,0.00,Wunderground v.1.15,2013-01-02 14:32:00,
2013-01-02 09:38:00,14.6,5.0,29.88,WNW,295,1.0,-999.0,65,0.00,,,0.00,Wunderground v.1.15,2013-01-02 14:38:00,
2013-01-02 09:43:00,15.0,5.0,29.89,South,169,2.0,-999.0,64,0.00,,,0.00,Wunderground v.1.15,2013-01-02 14:43:00,
2013-01-02 09:49:00,15.4,5.0,29.89,NNE,33,2.0,-999.0,63,0.00,,,0.00,Wunderground v.1.15,2013-01-02 14:49:00,
2013-01-02 09:54:00,15.9,5.5,29.88,WNW,285,1.0,-999.0,63,0.00,,,0.00,Wunderground v.1.15,2013-01-02 14:54:00,
2013-01-02 10:00:00,16.2,5.5,29.88,WSW,245,2.0,-999.0,62,0.00,,,0.00,Wunderground v.1.15,2013-01-02 15:00:00,
2013-01-02 10:05:00,16.4,5.6,29.89,SW,231,2.0,-999.0,62,0.00,,,0.00,Wunderground v.1.15,2013-01-02 15:05:00,
2013-01-02 10:11:00,17.0,6.2,29.89,SW,224,0.0,-999.0,62,0.00,,,0.00,Wunderground v.1.15,2013-01-02 15:11:00,
2013-01-02 10:16:00,17.5,6.3,29.88,SSW,200,0.0,-999.0,61,0.00,,,0.00,Wunderground v.1.15,2013-01-02 15:16:00,
2013-01-02 10:22:00,17.9,6.3,29.88,ESE,102,1.0,-999.0,60,0.00,,,0.00,Wunderground v.1.15,2013-01-02 15:22:00,
2013-01-02 10:27:00,18.2,6.6,29.88,NNW,335,0.0,-999.0,60,0.00,,,0.00,Wunderground v.1.15,2013-01-02 15:27:00,
2013-01-02 10:33:00,18.7,6.7,29.88,SW,229,0.0,-999.0,59,0.00,,,0.00,Wunderground v.1.15,2013-01-02 15:33:00,
2013-01-02 10:39:00,18.9,6.9,29.88,SW,231,1.0,-999.0,59,0.00,,,0.00,Wunderground v.1.15,2013-01-02 15:39:00,
2013-01-02 10:45:00,19.4,7.0,29.87,SW,214,1.0,-999.0,58,0.00,,,0.00,Wunderground v.1.15,2013-01-02 15:45:00,
2013-01-02 10:51:00,19.8,7.4,29.87,SW,214,1.0,-999.0,58,0.00,,,0.00,Wunderground v.1.15,2013-01-02 15:51:00,
2013-01-02 10:56:00,20.0,7.6,29.87,SE,136,1.0,-999.0,58,0.00,,,0.00,Wunderground v.1.15,2013-01-02 15:56:00,
2013-01-02 11:03:00,20.4,8.0,29.87,NE,54,1.0,-999.0,58,0.00,,,0.00,Wunderground v.1.15,2013-01-02 16:03:00,
2013-01-02 11:09:00,20.4,8.0,29.86,ESE,104,1.0,-999.0,58,0.00,,,0.00,Wunderground v.1.15,2013-01-02 16:09:00,
2013-01-02 11:15:00,20.9,8.0,29.86,West,280,1.0,-999.0,57,0.00,,,0.00,Wunderground v.1.15,2013-01-02 16:15:00,
2013-01-02 11:20:00,20.7,7.9,29.86,NNE,24,1.0,-999.0,57,0.00,,,0.00,Wunderground v.1.15,2013-01-02 16:20:00,
2013-01-02 11:26:00,20.6,7.8,29.86,WSW,245,2.0,-999.0,57,0.00,,,0.00,Wunderground v.1.15,2013-01-02 16:26:00,
2013-01-02 11:32:00,21.3,8.4,29.86,SSW,210,2.0,-999.0,57,0.00,,,0.00,Wunderground v.1.15,2013-01-02 16:32:00,
2013-01-02 11:37:00,21.8,8.9,29.86,SSE,166,1.0,-999.0,57,0.00,,,0.00,Wunderground v.1.15,2013-01-02 16:37:00,
2013-01-02 11:43:00,21.2,8.7,29.86,WSW,238,1.0,-999.0,58,0.00,,,0.00,Wunderground v.1.15,2013-01-02 16:43:00,
2013-01-02 11:48:00,20.6,8.1,29.86,SW,228,1.0,-999.0,58,0.00,,,0.00,Wunderground v.1.15,2013-01-02 16:48:00,
2013-01-02 11:54:00,20.6,8.5,29.86,ENE,75,1.0,-999.0,59,0.00,,,0.00,Wunderground v.1.15,2013-01-02 16:54:00,
2013-01-02 11:59:00,20.8,8.3,29.85,West,259,1.0,-999.0,58,0.00,,,0.00,Wunderground v.1.15,2013-01-02 16:59:00,
2013-01-02 12:04:00,20.7,7.5,29.85,NNW,328,2.0,-999.0,56,0.00,,,0.00,Wunderground v.1.15,2013-01-02 17:04:00,
2013-01-02 12:10:00,21.3,7.2,29.85,South,183,2.0,-999.0,54,0.00,,,0.00,Wunderground v.1.15,2013-01-02 17:10:00,
2013-01-02 12:16:00,21.7,7.2,29.85,NW,307,2.0,-999.0,53,0.00,,,0.00,Wunderground v.1.15,2013-01-02 17:16:00,
2013-01-02 12:22:00,21.9,7.4,29.85,SW,217,2.0,-999.0,53,0.00,,,0.00,Wunderground v.1.15,2013-01-02 17:22:00,
2013-01-02 12:28:00,22.0,6.2,29.85,NNW,343,2.0,-999.0,50,0.00,,,0.00,Wunderground v.1.15,2013-01-02 17:28:00,
2013-01-02 12:34:00,21.7,5.5,29.85,WSW,252,2.0,-999.0,49,0.00,,,0.00,Wunderground v.1.15,2013-01-02 17:34:00,
2013-01-02 12:39:00,21.6,5.4,29.85,ESE,110,2.0,-999.0,49,0.00,,,0.00,Wunderground v.1.15,2013-01-02 17:39:00,
2013-01-02 12:45:00,21.3,5.1,29.85,SW,232,3.0,-999.0,49,0.00,,,0.00,Wunderground v.1.15,2013-01-02 17:45:00,
2013-01-02 12:51:00,21.8,5.1,29.85,NE,34,2.0,-999.0,48,0.00,,,0.00,Wunderground v.1.15,2013-01-02 17:51:00,
2013-01-02 12:57:00,21.6,4.9,29.85,WSW,251,2.0,-999.0,48,0.00,,,0.00,Wunderground v.1.15,2013-01-02 17:57:00,
2013-01-02 13:03:00,21.6,4.0,29.85,North,1,3.0,-999.0,46,0.00,,,0.00,Wunderground v.1.15,2013-01-02 18:03:00,
2013-01-02 13:09:00,21.5,3.9,29.85,WSW,246,3.0,-999.0,46,0.00,,,0.00,Wunderground v.1.15,2013-01-02 18:09:00,
2013-01-02 13:15:00,21.6,4.0,29.85,West,271,3.0,-999.0,46,0.00,,,0.00,Wunderground v.1.15,2013-01-02 18:15:00,
2013-01-02 13:21:00,21.9,4.3,29.85,ESE,121,3.0,-999.0,46,0.00,,,0.00,Wunderground v.1.15,2013-01-02 18:21:00,
2013-01-02 13:26:00,22.0,3.9,29.85,SW,224,2.0,-999.0,45,0.00,,,0.00,Wunderground v.1.15,2013-01-02 18:26:00,
2013-01-02 13:32:00,21.9,3.8,29.85,SSW,200,2.0,-999.0,45,0.00,,,0.00,Wunderground v.1.15,2013-01-02 18:32:00,
2013-01-02 13:38:00,22.1,3.5,29.85,West,273,2.0,-999.0,44,0.00,,,0.00,Wunderground v.1.15,2013-01-02 18:38:00,
2013-01-02 13:44:00,22.0,2.9,29.85,WSW,243,2.0,-999.0,43,0.00,,,0.00,Wunderground v.1.15,2013-01-02 18:44:00,
2013-01-02 13:49:00,22.0,2.9,29.85,SSW,209,2.0,-999.0,43,0.00,,,0.00,Wunderground v.1.15,2013-01-02 18:49:00,
2013-01-02 13:55:00,21.9,2.3,29.85,SE,127,2.0,-999.0,42,0.00,,,0.00,Wunderground v.1.15,2013-01-02 18:55:00,
2013-01-02 14:03:00,22.0,2.4,29.85,ENE,75,2.0,-999.0,42,0.00,,,0.00,Wunderground v.1.15,2013-01-02 19:03:00,
2013-01-02 14:09:00,21.9,2.3,29.86,West,267,2.0,-999.0,42,0.00,,,0.00,Wunderground v.1.15,2013-01-02 19:09:00,
2013-01-02 14:14:00,21.9,2.3,29.86,NE,41,2.0,-999.0,42,0.00,,,0.00,Wunderground v.1.15,2013-01-02 19:14:00,
2013-01-02 14:19:00,21.6,2.0,29.87,ENE,59,3.0,-999.0,42,0.00,,,0.00,Wunderground v.1.15,2013-01-02 19:19:00,
2013-01-02 14:25:00,21.4,1.3,29.87,NNE,24,3.0,-999.0,41,0.00,,,0.00,Wunderground v.1.15,2013-01-02 19:25:00,
2013-01-02 14:30:00,21.2,1.6,29.87,SW,219,4.0,-999.0,42,0.00,,,0.00,Wunderground v.1.15,2013-01-02 19:30:00,
2013-01-02 14:36:00,21.2,2.2,29.87,ESE,103,3.0,-999.0,43,0.00,,,0.00,Wunderground v.1.15,2013-01-02 19:36:00,
2013-01-02 14:42:00,21.1,2.1,29.88,SW,233,2.0,-999.0,43,0.00,,,0.00,Wunderground v.1.15,2013-01-02 19:42:00,
2013-01-02 14:48:00,20.9,1.4,29.88,NNE,20,3.0,-999.0,42,0.00,,,0.00,Wunderground v.1.15,2013-01-02 19:48:00,
2013-01-02 14:53:00,20.7,1.2,29.88,SSE,148,3.0,-999.0,42,0.00,,,0.00,Wunderground v.1.15,2013-01-02 19:53:00,
2013-01-02 14:58:00,20.7,1.2,29.89,WSW,250,3.0,-999.0,42,0.00,,,0.00,Wunderground v.1.15,2013-01-02 19:58:00,
2013-01-02 15:03:00,20.7,1.2,29.89,SE,134,2.0,-999.0,42,0.00,,,0.00,Wunderground v.1.15,2013-01-02 20:03:00,
2013-01-02 15:09:00,20.6,0.6,29.89,West,264,1.0,-999.0,41,0.00,,,0.00,Wunderground v.1.15,2013-01-02 20:09:00,
2013-01-02 15:14:00,20.2,0.2,29.90,SW,227,2.0,-999.0,41,0.00,,,0.00,Wunderground v.1.15,2013-01-02 20:14:00,
2013-01-02 15:20:00,20.0,1.1,29.90,NW,318,2.0,-999.0,43,0.00,,,0.00,Wunderground v.1.15,2013-01-02 20:20:00,
2013-01-02 15:25:00,19.4,1.0,29.90,NNE,24,3.0,-999.0,44,0.00,,,0.00,Wunderground v.1.15,2013-01-02 20:25:00,
2013-01-02 15:31:00,19.0,1.1,29.91,NW,318,3.0,-999.0,45,0.00,,,0.00,Wunderground v.1.15,2013-01-02 20:31:00,
2013-01-02 15:37:00,18.5,0.2,29.92,NE,44,3.0,-999.0,44,0.00,,,0.00,Wunderground v.1.15,2013-01-02 20:37:00,
2013-01-02 15:42:00,18.2,-0.1,29.92,WNW,297,4.0,-999.0,44,0.00,,,0.00,Wunderground v.1.15,2013-01-02 20:42:00,
2013-01-02 15:48:00,17.7,-0.6,29.92,NNW,341,3.0,-999.0,44,0.00,,,0.00,Wunderground v.1.15,2013-01-02 20:48:00,
2013-01-02 15:54:00,17.4,-0.8,29.93,WSW,249,3.0,-999.0,44,0.00,,,0.00,Wunderground v.1.15,2013-01-02 20:54:00,
2013-01-02 16:00:00,17.0,-1.2,29.93,NNE,18,2.0,-999.0,44,0.00,,,0.00,Wunderground v.1.15,2013-01-02 21:00:00,
2013-01-02 16:05:00,16.8,-0.9,29.93,NNE,25,2.0,-999.0,45,0.00,,,0.00,Wunderground v.1.15,2013-01-02 21:05:00,
2013-01-02 16:11:00,16.3,-1.4,29.93,NE,50,3.0,-999.0,45,0.00,,,0.00,Wunderground v.1.15,2013-01-02 21:11:00,
2013-01-02 16:16:00,16.1,-1.5,29.93,North,352,3.0,-999.0,45,0.00,,,0.00,Wunderground v.1.15,2013-01-02 21:16:00,
2013-01-02 16:22:00,15.7,-1.4,29.94,NW,317,2.0,-999.0,46,0.00,,,0.00,Wunderground v.1.15,2013-01-02 21:22:00,
2013-01-02 16:27:00,15.4,-1.7,29.94,NNE,28,2.0,-999.0,46,0.00,,,0.00,Wunderground v.1.15,2013-01-02 21:27:00,
2013-01-02 16:33:00,14.9,-1.7,29.95,NE,44,2.0,-999.0,47,0.00,,,0.00,Wunderground v.1.15,2013-01-02 21:33:00,
2013-01-02 16:39:00,14.5,-2.1,29.95,NNE,19,2.0,-999.0,47,0.00,,,0.00,Wunderground v.1.15,2013-01-02 21:39:00,
2013-01-02 16:44:00,14.1,-2.5,29.96,ENE,70,2.0,-999.0,47,0.00,,,0.00,Wunderground v.1.15,2013-01-02 21:44:00,
2013-01-02 16:50:00,13.7,-2.4,29.96,East,80,2.0,-999.0,48,0.00,,,0.00,Wunderground v.1.15,2013-01-02 21:50:00,
2013-01-02 16:56:00,13.5,-2.6,29.97,East,83,2.0,-999.0,48,0.00,,,0.00,Wunderground v.1.15,2013-01-02 21:56:00,
2013-01-02 17:03:00,13.1,-2.9,29.97,NNE,14,2.0,-999.0,48,0.00,,,0.00,Wunderground v.1.15,2013-01-02 22:03:00,
2013-01-02 17:09:00,13.0,-2.6,29.98,West,278,3.0,-999.0,49,0.00,,,0.00,Wunderground v.1.15,2013-01-02 22:09:00,
2013-01-02 17:14:00,12.8,-3.2,29.98,NNE,32,3.0,-999.0,48,0.00,,,0.00,Wunderground v.1.15,2013-01-02 22:14:00,
2013-01-02 17:19:00,12.6,-3.4,29.98,NE,51,3.0,-999.0,48,0.00,,,0.00,Wunderground v.1.15,2013-01-02 22:19:00,
2013-01-02 17:24:00,12.3,-3.3,29.99,North,11,1.0,-999.0,49,0.00,,,0.00,Wunderground v.1.15,2013-01-02 22:24:00,
2013-01-02 17:29:00,12.1,-3.4,29.99,WNW,283,1.0,-999.0,49,0.00,,,0.00,Wunderground v.1.15,2013-01-02 22:29:00,
2013-01-02 17:34:00,12.1,-3.9,29.99,NE,37,3.0,-999.0,48,0.00,,,0.00,Wunderground v.1.15,2013-01-02 22:34:00,
2013-01-02 17:40:00,11.8,-4.2,29.99,ENE,62,3.0,-999.0,48,0.00,,,0.00,Wunderground v.1.15,2013-01-02 22:40:00,
2013-01-02 17:45:00,11.6,-4.3,29.99,SE,133,2.0,-999.0,48,0.00,,,0.00,Wunderground v.1.15,2013-01-02 22:45:00,
2013-01-02 17:50:00,11.3,-4.2,29.99,WSW,252,2.0,-999.0,49,0.00,,,0.00,Wunderground v.1.15,2013-01-02 22:50:00,
2013-01-02 17:57:00,11.1,-4.8,30.00,WNW,284,2.0,-999.0,48,0.00,,,0.00,Wunderground v.1.15,2013-01-02 22:57:00,
2013-01-02 18:02:00,11.0,-4.9,30.01,NE,53,2.0,-999.0,48,0.00,,,0.00,Wunderground v.1.15,2013-01-02 23:02:00,
2013-01-02 18:08:00,10.8,-5.1,30.01,NNW,347,2.0,-999.0,48,0.00,,,0.00,Wunderground v.1.15,2013-01-02 23:08:00,
2013-01-02 18:14:00,10.6,-5.3,30.01,North,4,1.0,-999.0,48,0.00,,,0.00,Wunderground v.1.15,2013-01-02 23:14:00,
2013-01-02 18:19:00,10.3,-5.5,30.00,WNW,297,2.0,-999.0,48,0.00,,,0.00,Wunderground v.1.15,2013-01-02 23:19:00,
2013-01-02 18:25:00,10.0,-5.8,30.00,NE,39,3.0,-999.0,48,0.00,,,0.00,Wunderground v.1.15,2013-01-02 23:25:00,
2013-01-02 18:31:00,9.8,-6.0,30.01,NNE,20,3.0,-999.0,48,0.00,,,0.00,Wunderground v.1.15,2013-01-02 23:31:00,
2013-01-02 18:36:00,9.4,-5.9,30.01,ENE,61,2.0,-999.0,49,0.00,,,0.00,Wunderground v.1.15,2013-01-02 23:36:00,
2013-01-02 18:42:00,9.1,-6.2,30.01,North,4,2.0,-999.0,49,0.00,,,0.00,Wunderground v.1.15,2013-01-02 23:42:00,
2013-01-02 18:47:00,8.8,-6.1,30.01,NNE,25,3.0,-999.0,50,0.00,,,0.00,Wunderground v.1.15,2013-01-02 23:47:00,
2013-01-02 18:53:00,8.5,-6.0,30.01,NE,50,3.0,-999.0,51,0.00,,,0.00,Wunderground v.1.15,2013-01-02 23:53:00,
2013-01-02 18:58:00,8.3,-6.1,30.01,NE,49,2.0,-999.0,51,0.00,,,0.00,Wunderground v.1.15,2013-01-02 23:58:00,
2013-01-02 19:03:00,8.1,-5.9,30.01,ENE,70,3.0,-999.0,52,0.00,,,0.00,Wunderground v.1.15,2013-01-03 00:03:00,
2013-01-02 19:09:00,7.8,-6.2,30.01,NNE,16,3.0,-999.0,52,0.00,,,0.00,Wunderground v.1.15,2013-01-03 00:09:00,
2013-01-02 19:15:00,7.7,-6.3,30.01,NE,49,3.0,-999.0,52,0.00,,,0.00,Wunderground v.1.15,2013-01-03 00:15:00,
2013-01-02 19:20:00,7.6,-6.4,30.01,South,190,4.0,-999.0,52,0.00,,,0.00,Wunderground v.1.15,2013-01-03 00:20:00,
2013-01-02 19:26:00,7.5,-6.9,30.02,ENE,58,3.0,-999.0,51,0.00,,,0.00,Wunderground v.1.15,2013-01-03 00:26:00,
2013-01-02 19:32:00,7.4,-7.0,30.02,NNE,26,3.0,-999.0,51,0.00,,,0.00,Wunderground v.1.15,2013-01-03 00:32:00,
2013-01-02 19:38:00,7.3,-7.1,30.02,East,89,3.0,-999.0,51,0.00,,,0.00,Wunderground v.1.15,2013-01-03 00:38:00,
2013-01-02 19:43:00,7.2,-7.6,30.03,NNE,18,2.0,-999.0,50,0.00,,,0.00,Wunderground v.1.15,2013-01-03 00:43:00,
2013-01-02 19:48:00,7.1,-7.3,30.02,NNE,33,2.0,-999.0,51,0.00,,,0.00,Wunderground v.1.15,2013-01-03 00:48:00,
2013-01-02 19:53:00,6.9,-7.4,30.02,NW,322,2.0,-999.0,51,0.00,,,0.00,Wunderground v.1.15,2013-01-03 00:53:00,
2013-01-02 19:59:00,6.6,-7.3,30.01,NNE,30,2.0,-999.0,52,0.00,,,0.00,Wunderground v.1.15,2013-01-03 00:59:00,
2013-01-02 20:05:00,6.5,-7.4,30.03,NNE,25,2.0,-999.0,52,0.00,,,0.00,Wunderground v.1.15,2013-01-03 01:05:00,
2013-01-02 20:10:00,6.5,-7.8,30.03,WNW,298,3.0,-999.0,51,0.00,,,0.00,Wunderground v.1.15,2013-01-03 01:10:00,
2013-01-02 20:15:00,6.7,-8.4,30.02,NNE,23,3.0,-999.0,49,0.00,,,0.00,Wunderground v.1.15,2013-01-03 01:15:00,
2013-01-02 20:21:00,6.7,-8.9,30.03,NNW,336,4.0,-999.0,48,0.00,,,0.00,Wunderground v.1.15,2013-01-03 01:21:00,
2013-01-02 20:26:00,6.7,-8.9,30.03,NNE,32,4.0,-999.0,48,0.00,,,0.00,Wunderground v.1.15,2013-01-03 01:26:00,
2013-01-02 20:32:00,6.5,-8.6,30.04,SSW,194,4.0,-999.0,49,0.00,,,0.00,Wunderground v.1.15,2013-01-03 01:32:00,
2013-01-02 20:38:00,6.3,-8.8,30.04,NE,44,3.0,-999.0,49,0.00,,,0.00,Wunderground v.1.15,2013-01-03 01:38:00,
2013-01-02 20:44:00,6.2,-8.9,30.04,NE,43,3.0,-999.0,49,0.00,,,0.00,Wunderground v.1.15,2013-01-03 01:44:00,
2013-01-02 20:50:00,6.1,-8.6,30.04,NW,326,3.0,-999.0,50,0.00,,,0.00,Wunderground v.1.15,2013-01-03 01:50:00,
2013-01-02 20:56:00,5.9,-8.8,30.04,SSW,207,2.0,-999.0,50,0.00,,,0.00,Wunderground v.1.15,2013-01-03 01:56:00,
2013-01-02 21:03:00,5.5,-8.7,30.04,ENE,60,1.0,-999.0,51,0.00,,,0.00,Wunderground v.1.15,2013-01-03 02:03:00,
2013-01-02 21:09:00,5.4,-8.8,30.03,NNE,25,1.0,-999.0,51,0.00,,,0.00,Wunderground v.1.15,2013-01-03 02:09:00,
2013-01-02 21:14:00,5.2,-9.0,30.03,North,354,2.0,-999.0,51,0.00,,,0.00,Wunderground v.1.15,2013-01-03 02:14:00,
2013-01-02 21:20:00,5.1,-9.1,30.03,WNW,299,1.0,-999.0,51,0.00,,,0.00,Wunderground v.1.15,2013-01-03 02:20:00,
2013-01-02 21:26:00,5.0,-9.2,30.04,West,278,2.0,-999.0,51,0.00,,,0.00,Wunderground v.1.15,2013-01-03 02:26:00,
2013-01-02 21:32:00,5.0,-8.8,30.04,NE,41,1.0,-999.0,52,0.00,,,0.00,Wunderground v.1.15,2013-01-03 02:32:00,
2013-01-02 21:37:00,4.8,-9.0,30.04,South,188,0.0,-999.0,52,0.00,,,0.00,Wunderground v.1.15,2013-01-03 02:37:00,
2013-01-02 21:43:00,4.6,-9.2,30.04,West,266,0.0,-999.0,52,0.00,,,0.00,Wunderground v.1.15,2013-01-03 02:43:00,
2013-01-02 21:48:00,4.4,-9.0,30.04,ENE,77,0.0,-999.0,53,0.00,,,0.00,Wunderground v.1.15,2013-01-03 02:48:00,
2013-01-02 21:54:00,4.3,-9.1,30.04,West,269,0.0,-999.0,53,0.00,,,0.00,Wunderground v.1.15,2013-01-03 02:54:00,
2013-01-02 21:59:00,4.1,-8.9,30.03,West,274,0.0,-999.0,54,0.00,,,0.00,Wunderground v.1.15,2013-01-03 02:59:00,
2013-01-02 22:04:00,4.1,-8.9,30.03,East,83,1.0,-999.0,54,0.00,,,0.00,Wunderground v.1.15,2013-01-03 03:04:00,
2013-01-02 22:10:00,4.1,-8.9,30.03,WSW,237,0.0,-999.0,54,0.00,,,0.00,Wunderground v.1.15,2013-01-03 03:10:00,
2013-01-02 22:16:00,4.0,-9.0,30.02,ESE,112,0.0,-999.0,54,0.00,,,0.00,Wunderground v.1.15,2013-01-03 03:16:00,
2013-01-02 22:22:00,3.8,-9.2,30.03,ENE,63,0.0,-999.0,54,0.00,,,0.00,Wunderground v.1.15,2013-01-03 03:22:00,
2013-01-02 22:28:00,4.0,-9.0,30.03,NE,51,1.0,-999.0,54,0.00,,,0.00,Wunderground v.1.15,2013-01-03 03:28:00,
2013-01-02 22:36:00,4.4,-9.0,30.03,NE,51,1.0,-999.0,53,0.00,,,0.00,Wunderground v.1.15,2013-01-03 03:36:00,
2013-01-02 22:42:00,4.6,-9.2,30.03,ENE,59,2.0,-999.0,52,0.00,,,0.00,Wunderground v.1.15,2013-01-03 03:42:00,
2013-01-02 22:48:00,4.7,-9.1,30.04,WSW,243,2.0,-999.0,52,0.00,,,0.00,Wunderground v.1.15,2013-01-03 03:48:00,
2013-01-02 22:53:00,4.7,-9.1,30.04,SW,221,2.0,-999.0,52,0.00,,,0.00,Wunderground v.1.15,2013-01-03 03:53:00,
2013-01-02 22:59:00,4.5,-8.9,30.04,WSW,245,1.0,-999.0,53,0.00,,,0.00,Wunderground v.1.15,2013-01-03 03:59:00,
2013-01-02 23:06:00,4.4,-9.0,30.04,WNW,300,1.0,-999.0,53,0.00,,,0.00,Wunderground v.1.15,2013-01-03 04:06:00,
2013-01-02 23:11:00,4.3,-9.1,30.04,NNE,25,1.0,-999.0,53,0.00,,,0.00,Wunderground v.1.15,2013-01-03 04:11:00,
2013-01-02 23:17:00,4.2,-9.2,30.03,NE,51,1.0,-999.0,53,0.00,,,0.00,Wunderground v.1.15,2013-01-03 04:17:00,
2013-01-02 23:22:00,4.1,-9.3,30.03,North,354,2.0,-999.0,53,0.00,,,0.00,Wunderground v.1.15,2013-01-03 04:22:00,
2013-01-02 23:28:00,4.0,-9.4,30.03,WNW,283,2.0,-999.0,53,0.00,,,0.00,Wunderground v.1.15,2013-01-03 04:28:00,
2013-01-02 23:33:00,3.9,-9.1,30.03,NE,36,1.0,-999.0,54,0.00,,,0.00,Wunderground v.1.15,2013-01-03 04:33:00,
2013-01-02 23:38:00,4.0,-9.0,30.03,West,281,2.0,-999.0,54,0.00,,,0.00,Wunderground v.1.15,2013-01-03 04:38:00,
2013-01-02 23:43:00,4.0,-9.0,30.03,NW,319,2.0,-999.0,54,0.00,,,0.00,Wunderground v.1.15,2013-01-03 04:43:00,
2013-01-02 23:49:00,4.0,-9.0,30.04,North,351,2.0,-999.0,54,0.00,,,0.00,Wunderground v.1.15,2013-01-03 04:49:00,
2013-01-02 23:54:00,4.1,-8.9,30.04,NNE,20,3.0,-999.0,54,0.00,,,0.00,Wunderground v.1.15,2013-01-03 04:54:00,
2013-01-02 23:59:00,4.1,-8.9,30.04,West,269,2.0,-999.0,54,0.00,,,0.00,Wunderground v.1.15,2013-01-03 04:59:00,